AirNav   Duncan Aviation - Near you to keep you flying
 
 988 users online  

6NC3 Eastover Air Ranch Airport
Fayetteville, North Carolina, USA

GOING TO FAYETTEVILLE?


FAA INFORMATION EFFECTIVE 01 DECEMBER 2022

Location

FAA Identifier: 6NC3
Lat/Long: 35-05-11.0000N 078-46-20.0000W
35-05.183333N 078-46.333333W
35.0863889,-78.7722222
(estimated)
Elevation: 160 ft. / 48.8 m (surveyed)
Variation: 07W (1990)
From city: 6 miles NE of FAYETTEVILLE, NC
Time zone: UTC -5 (UTC -4 during Daylight Saving Time)
Zip code: 28301

Airport Operations

Airport use: Private use. Permission required prior to landing
Activation date: 07/1992
Control tower: no
ARTCC: WASHINGTON CENTER
FSS: RALEIGH FLIGHT SERVICE STATION
Attendance: UNATNDD
Wind indicator: yes
Segmented circle: no

Airport Communications

WX ASOS at FAY (8 nm SW): 121.25 (910-484-1546)
WX AWOS-3 at HRJ (18 nm N): 119.025 (910-814-3946)

Nearby radio navigation aids

VOR radial/distance  VOR name  Freq  Var
FAYr044/7.9FAYETTEVILLE VOR/DME114.8504W

 
NDB name  Hdg/Dist  Freq  Var  ID
CLINTON297/21.241209WCTZ -.-. - --..
HARNETT201/21.341708WHQT .... --.- -

Airport Services

Runway Information

Runway 4/22

Dimensions: 3000 x 300 ft. / 914 x 91 m
Surface: turf
RUNWAY 4  RUNWAY 22
Traffic pattern: leftleft

Airport Ownership and Management from official FAA records

Ownership: Privately-owned
Owner: EASTOVER AIR RANCH HOA
P. O. BOX 285
WADE, NC 28395
Phone (910) 257-1842
Manager: CRAIG GALLENBACH
P. O. BOX 285
WADE, NC 28395
Phone (910) 257-1842

Airport Operational Statistics

Aircraft based on the field: 6
Single engine airplanes: 6
    

Additional Remarks

FOR CD CTC WASHINGTON ARTCC AT 703-771-3587.

Instrument Procedures

There are no published instrument procedures at 6NC3.

Some nearby airports with instrument procedures:

KFAY - Fayetteville Regional Airport/Grannis Field (8 nm SW)
KFBG - Simmons Army Airfield (9 nm W)
KPOB - Pope Army Airfield (13 nm NW)
KHRJ - Harnett Regional Jetport Airport (18 nm N)
5W4 - P K Airpark (21 nm W)
 
Loc | Ops | Rwys | IFR | FBO | Links
Com | Nav | Svcs | Stats | Notes
Area around 6NC3 (Eastover Air Ranch Airport)
 
Road maps at: MapQuest Bing Google
 
Aerial photo
No photo
 
Sectional chart

 
Airport distance calculator
Flying to Eastover Air Ranch Airport? Find the distance to fly.

From to 6NC3

Sunrise and sunset
Times for 06-Dec-2022
 Local
(UTC-5)
 Zulu
(UTC)
Morning civil twilight06:4211:42
Sunrise07:1012:10
Sunset17:0222:02
Evening civil twilight17:3022:30

Current date and time
Zulu (UTC)  07-Dec-2022 04:42:54
Local (UTC-5)  06-Dec-2022 23:42:54
 
METAR
KFBG 
7nm W 
070355Z AUTO 00000KT 10SM BKN090 14/14 A3023 RMK AO2 SLP240 T01440142 $
KFAY 
8nm SW 
070353Z 15004KT 10SM FEW050 BKN085 BKN110 16/14 A3024 RMK AO2 SLP235 T01610144
KPOB 
13nm W 
070423Z AUTO 00000KT 10SM BKN020 OVC090 13/13 A3025 RMK AO2 CIG 020V090 BKN V SCT SLP247 $
KHRJ 
18nm N 
070415Z AUTO 00000KT 10SM SCT026 OVC090 13/13 A3026 RMK AO2 T01340130
TAF
KFBG 
7nm W 
070412Z 0704/0808 18004KT 9999 OVC090 QNH3022INS BECMG 0720/0721 23004KT 9999 OVC010 QNH3025INS BECMG 0722/0723 24004KT 9999 OVC008 QNH3023INS TX17/0720Z TN12/0709Z
KFAY 
8nm SW 
062111Z 0621/0718 00000KT P6SM SCT040 BKN060 BKN070 FM070600 VRB03KT 3SM BR OVC025
KPOB 
13nm W 
061800Z 0618/0724 12003KT 9999 SCT006 BKN017 OVC025 QNH3019INS TEMPO 0618/0623 4800 -DZ BR BKN006 BKN015 OVC020 BECMG 0704/0705 23003KT 8000 BR BKN006 OVC012 QNH3024INS BECMG 0709/0710 24002KT 1600 BR OVC004 QNH3025INS BECMG 0714/0715 24004KT 8000 BR BKN007 OVC015 QNH3027INS BECMG 0716/0717 23005KT 9999 NSW OVC007 QNH3021INS TX15/0621Z TN12/0711Z LAST NO AMDS AFT 0623 NEXT 0718
NOTAMs
Click for the latest NOTAMs
NOTAMs are issued by the DoD/FAA and will open in a separate window not controlled by AirNav.

 

 
 

Would you like to see your business listed on this page?

 If your business provides an interesting product or service to pilots, flight crews, aircraft, or users of the Eastover Air Ranch Airport, you should consider listing it here.  To start the listing process, click on the button below
 
Add a business
 

Other Pages about Eastover Air Ranch Airport

Update a link
 
Copyright © AirNav, LLC. All rights reserved. Privacy Policy  Contact